createdAt,value
2019-05-14T00:00:18.620Z,9.13
2019-05-14T00:02:48.843Z,9.70
2019-05-14T00:05:18.996Z,9.23
2019-05-14T00:07:49.081Z,9.48
2019-05-14T00:10:19.190Z,9.75
2019-05-14T00:12:51.108Z,9.30
2019-05-14T00:15:21.663Z,10.32
2019-05-14T00:17:52.348Z,9.73
2019-05-14T00:20:22.682Z,9.85
2019-05-14T00:22:53.779Z,9.68
2019-05-14T00:25:23.999Z,10.28
2019-05-14T00:27:54.101Z,10.28
2019-05-14T00:30:25.257Z,10.45
2019-05-14T00:32:55.504Z,10.23
2019-05-14T00:35:25.727Z,10.63
2019-05-14T00:37:55.811Z,10.53
2019-05-14T00:40:25.898Z,9.88
2019-05-14T00:42:56.159Z,10.10
2019-05-14T00:45:26.321Z,10.23
2019-05-14T00:47:56.565Z,10.70
2019-05-14T00:50:26.912Z,10.43
2019-05-14T00:52:57.058Z,10.85
2019-05-14T00:55:27.087Z,10.75
2019-05-14T00:57:57.240Z,11.70
2019-05-14T01:00:27.548Z,11.35
2019-05-14T01:02:57.616Z,11.65
2019-05-14T01:05:27.849Z,11.08
2019-05-14T01:07:59.015Z,11.65
2019-05-14T01:10:31.163Z,11.22
2019-05-14T01:13:01.298Z,11.60
2019-05-14T01:15:32.278Z,12.15
2019-05-14T01:18:05.592Z,11.50
2019-05-14T01:20:35.839Z,11.50
2019-05-14T01:23:05.999Z,12.28
2019-05-14T01:25:36.171Z,12.03
2019-05-14T01:28:06.334Z,11.75
2019-05-14T01:30:36.641Z,11.90
2019-05-14T01:33:06.867Z,12.50
2019-05-14T01:35:37.024Z,12.58
2019-05-14T01:38:07.180Z,11.38
2019-05-14T01:40:37.337Z,12.18
2019-05-14T01:43:07.492Z,12.35
2019-05-14T01:45:37.589Z,11.73
2019-05-14T01:48:07.812Z,11.78
2019-05-14T01:50:37.975Z,11.00
2019-05-14T01:53:08.206Z,11.18
2019-05-14T01:55:38.296Z,11.28
2019-05-14T01:58:08.460Z,11.75
2019-05-14T02:00:38.645Z,12.23
2019-05-14T02:03:08.864Z,11.65
2019-05-14T02:05:38.892Z,12.05
2019-05-14T02:08:09.200Z,11.75
2019-05-14T02:10:41.770Z,12.73
2019-05-14T02:13:12.249Z,12.45
2019-05-14T02:15:43.071Z,12.93
2019-05-14T02:18:13.275Z,13.13
2019-05-14T02:20:43.440Z,13.75
2019-05-14T02:23:13.660Z,13.22
2019-05-14T02:25:43.891Z,14.00
2019-05-14T02:28:14.120Z,13.38
2019-05-14T02:30:55.958Z,15.05
2019-05-14T02:33:19.085Z,14.20
2019-05-14T02:35:49.384Z,13.48
2019-05-14T02:38:20.881Z,13.95
2019-05-14T02:40:51.160Z,14.78
2019-05-14T02:43:21.291Z,13.55
2019-05-14T02:46:05.944Z,14.38
2019-05-14T02:48:23.633Z,14.30
2019-05-14T02:50:53.807Z,14.80
2019-05-14T02:53:24.101Z,14.28
2019-05-14T02:55:54.302Z,13.45
2019-05-14T02:58:24.504Z,13.65
2019-05-14T03:00:54.726Z,13.93
2019-05-14T03:03:24.965Z,14.93
2019-05-14T03:05:56.162Z,14.50
2019-05-14T03:08:26.393Z,15.72
2019-05-14T03:11:00.307Z,14.33
2019-05-14T03:13:29.732Z,15.03
2019-05-14T03:16:19.077Z,14.90
2019-05-14T03:18:32.103Z,15.13
2019-05-14T03:21:02.320Z,15.23
2019-05-14T03:23:32.561Z,14.63
2019-05-14T03:26:02.793Z,15.58
2019-05-14T03:28:33.948Z,14.83
2019-05-14T03:31:04.554Z,15.40
2019-05-14T03:33:34.808Z,15.72
2019-05-14T03:36:09.127Z,15.08
2019-05-14T03:38:39.573Z,14.83
2019-05-14T03:41:09.377Z,14.18
2019-05-14T03:43:40.455Z,14.60
2019-05-14T03:46:10.705Z,13.75
2019-05-14T03:48:40.875Z,13.75
2019-05-14T03:51:11.044Z,14.30
2019-05-14T03:53:55.926Z,13.05
2019-05-14T03:56:13.153Z,13.90
2019-05-14T03:58:43.307Z,13.90
2019-05-14T04:01:13.966Z,13.75
2019-05-14T04:03:44.354Z,14.38
2019-05-14T04:06:18.986Z,14.87
2019-05-14T04:08:49.759Z,14.90
2019-05-14T04:11:22.345Z,14.00
2019-05-14T04:13:55.066Z,14.23
2019-05-14T04:16:29.253Z,14.63
2019-05-14T04:19:02.348Z,14.85
2019-05-14T04:21:32.970Z,15.05
2019-05-14T04:24:04.383Z,15.13
2019-05-14T04:26:53.103Z,14.50
2019-05-14T04:29:10.924Z,15.32
2019-05-14T04:31:44.499Z,15.45
2019-05-14T04:34:14.839Z,15.40
2019-05-14T04:36:45.768Z,15.20
2019-05-14T04:39:15.855Z,15.13
2019-05-14T04:41:46.092Z,14.87
2019-05-14T04:44:18.921Z,14.83
2019-05-14T04:46:49.352Z,14.93
2019-05-14T04:49:20.117Z,14.73
2019-05-14T04:51:51.440Z,15.05
2019-05-14T04:54:21.608Z,15.80
2019-05-14T04:56:51.756Z,14.53
2019-05-14T04:59:21.919Z,14.10
2019-05-14T05:01:52.104Z,13.38
2019-05-14T05:04:23.278Z,13.70
2019-05-14T05:06:53.381Z,13.35
2019-05-14T05:09:23.389Z,13.98
2019-05-14T05:11:53.539Z,13.93
2019-05-14T05:14:24.018Z,13.80
2019-05-14T05:16:54.175Z,14.73
2019-05-14T05:19:24.193Z,14.68
2019-05-14T05:21:58.544Z,14.65
2019-05-14T05:24:28.776Z,13.98
2019-05-14T05:26:59.137Z,14.43
2019-05-14T05:29:29.300Z,13.70
2019-05-14T05:31:59.577Z,13.43
2019-05-14T05:34:29.820Z,13.55
2019-05-14T05:37:00.004Z,13.95
2019-05-14T05:39:30.208Z,13.95
2019-05-14T05:42:00.364Z,14.05
2019-05-14T05:44:30.598Z,13.70
2019-05-14T05:47:01.755Z,13.28
2019-05-14T05:49:31.918Z,12.73
2019-05-14T05:52:01.992Z,12.63
2019-05-14T05:54:32.180Z,13.00
2019-05-14T05:57:02.349Z,12.73
2019-05-14T05:59:32.582Z,13.25
2019-05-14T06:02:02.791Z,14.00
2019-05-14T06:04:32.905Z,12.82
2019-05-14T06:07:03.173Z,13.13
2019-05-14T06:09:33.351Z,12.47
2019-05-14T06:12:03.516Z,13.30
2019-05-14T06:14:33.668Z,11.90
2019-05-14T06:17:03.837Z,11.90
2019-05-14T06:19:33.922Z,11.68
2019-05-14T06:22:04.388Z,9.98
2019-05-14T06:24:34.663Z,10.48
2019-05-14T06:27:04.964Z,11.12
2019-05-14T06:29:35.127Z,10.20
2019-05-14T06:32:05.348Z,9.98
2019-05-14T06:34:38.025Z,10.18
2019-05-14T06:37:08.373Z,9.78
2019-05-14T06:39:39.264Z,9.88
2019-05-14T06:42:10.547Z,9.70
2019-05-14T06:44:40.767Z,7.72
2019-05-14T06:47:11.008Z,7.37
2019-05-14T06:49:41.155Z,7.35
2019-05-14T06:52:11.410Z,6.85
2019-05-14T06:54:41.624Z,6.50
2019-05-14T06:57:11.741Z,7.03
2019-05-14T06:59:41.787Z,5.90
2019-05-14T07:02:12.001Z,6.85
2019-05-14T07:04:42.237Z,6.58
2019-05-14T07:07:13.518Z,6.33
2019-05-14T07:09:43.681Z,6.25
2019-05-14T07:12:13.892Z,6.58
2019-05-14T07:14:44.069Z,7.08
2019-05-14T07:17:14.214Z,6.72
2019-05-14T07:19:44.442Z,6.85
2019-05-14T07:22:15.656Z,6.83
2019-05-14T07:24:45.822Z,5.87
2019-05-14T07:27:15.895Z,5.60
2019-05-14T07:29:46.125Z,5.47
2019-05-14T07:32:18.919Z,5.45
2019-05-14T07:34:48.350Z,4.80
2019-05-14T07:37:18.551Z,5.00
2019-05-14T07:39:48.918Z,5.70
2019-05-14T07:42:19.168Z,5.70
2019-05-14T07:44:49.258Z,6.00
2019-05-14T07:47:19.341Z,5.40
2019-05-14T07:49:49.562Z,5.53
2019-05-14T07:52:19.962Z,6.10
2019-05-14T07:54:50.188Z,4.78
2019-05-14T07:57:20.272Z,4.62
2019-05-14T07:59:50.508Z,3.55
2019-05-14T08:02:20.731Z,3.20
2019-05-14T08:04:51.884Z,3.27
2019-05-14T08:07:22.023Z,2.52
2019-05-14T08:09:52.164Z,3.15
2019-05-14T08:12:22.316Z,2.67
2019-05-14T08:15:13.071Z,3.02
2019-05-14T08:17:24.260Z,2.75
2019-05-14T08:19:54.407Z,2.58
2019-05-14T08:22:24.621Z,2.65
2019-05-14T08:24:57.991Z,2.60
2019-05-14T08:27:30.915Z,2.45
2019-05-14T08:29:59.480Z,2.65
2019-05-14T08:32:29.622Z,3.27
2019-05-14T08:34:59.699Z,3.40
2019-05-14T08:37:29.839Z,3.60
2019-05-14T08:40:00.001Z,2.98
2019-05-14T08:42:34.038Z,3.10
2019-05-14T08:45:04.948Z,3.42
2019-05-14T08:47:34.095Z,2.85
2019-05-14T08:50:04.625Z,2.70
2019-05-14T08:52:34.767Z,2.40
2019-05-14T08:55:10.946Z,2.37
2019-05-14T08:57:38.922Z,2.50
2019-05-14T09:00:13.930Z,2.60
2019-05-14T09:02:42.616Z,2.47
2019-05-14T09:05:12.854Z,2.33
2019-05-14T09:07:43.004Z,2.45
2019-05-14T09:10:13.230Z,2.42
2019-05-14T09:12:43.330Z,2.50
2019-05-14T09:15:13.635Z,2.40
2019-05-14T09:17:43.869Z,3.22
2019-05-14T09:20:14.221Z,2.80
2019-05-14T09:22:44.528Z,2.37
2019-05-14T09:25:14.932Z,2.60
2019-05-14T09:27:45.099Z,2.70
2019-05-14T09:30:15.265Z,2.42
2019-05-14T09:32:45.419Z,2.83
2019-05-14T09:35:15.636Z,3.10
2019-05-14T09:37:45.785Z,3.08
2019-05-14T09:40:16.364Z,2.90
2019-05-14T09:42:49.721Z,2.58
2019-05-14T09:45:18.887Z,2.62
2019-05-14T09:47:50.752Z,3.30
2019-05-14T09:50:23.310Z,3.00
2019-05-14T09:52:55.119Z,2.98
2019-05-14T09:55:25.436Z,3.20
2019-05-14T09:57:55.528Z,3.05
2019-05-14T10:00:25.760Z,2.60
2019-05-14T10:02:55.984Z,2.90
2019-05-14T10:05:26.219Z,2.85
2019-05-14T10:07:56.375Z,2.80
2019-05-14T10:10:48.638Z,2.70
2019-05-14T10:13:17.846Z,3.10
2019-05-14T10:15:48.612Z,3.20
2019-05-14T10:18:18.980Z,2.90
2019-05-14T10:20:49.652Z,3.80
2019-05-14T10:23:19.884Z,3.12
2019-05-14T10:25:50.099Z,3.30
2019-05-14T10:28:20.259Z,3.20
2019-05-14T10:30:50.420Z,3.42
2019-05-14T10:33:20.557Z,2.92
2019-05-14T10:35:50.864Z,3.40
2019-05-14T10:38:21.019Z,3.00
2019-05-14T10:40:51.192Z,2.58
2019-05-14T10:43:21.475Z,3.42
2019-05-14T10:45:51.631Z,3.58
2019-05-14T10:48:21.845Z,3.98
2019-05-14T10:51:01.985Z,3.17
2019-05-14T10:53:23.844Z,2.75
2019-05-14T10:55:54.207Z,3.05
2019-05-14T10:58:24.296Z,2.83
2019-05-14T11:00:54.395Z,3.50
2019-05-14T11:03:24.610Z,3.17
2019-05-14T11:05:54.740Z,3.10
2019-05-14T11:08:24.835Z,3.40
2019-05-14T11:10:55.027Z,3.20
2019-05-14T11:13:25.330Z,3.12
2019-05-14T11:15:55.554Z,3.08
2019-05-14T11:18:25.711Z,2.90
2019-05-14T11:21:16.218Z,3.22
2019-05-14T11:23:29.716Z,3.10
2019-05-14T11:25:59.690Z,2.90
2019-05-14T11:28:29.915Z,2.72
2019-05-14T11:31:01.312Z,2.77
2019-05-14T11:33:31.386Z,2.85
2019-05-14T11:36:01.619Z,3.10
2019-05-14T11:38:36.862Z,3.05
2019-05-14T11:41:03.733Z,3.22
2019-05-14T11:43:33.993Z,2.62
2019-05-14T11:46:04.376Z,2.98
2019-05-14T11:48:34.510Z,2.87
2019-05-14T11:51:04.709Z,2.80
2019-05-14T11:53:34.794Z,3.37
2019-05-14T11:56:05.030Z,2.90
2019-05-14T11:58:35.190Z,2.80
2019-05-14T12:01:05.322Z,2.20
2019-05-14T12:03:35.476Z,2.77
2019-05-14T12:06:05.706Z,2.52
2019-05-14T12:08:35.930Z,3.30
2019-05-14T12:11:08.641Z,2.90
2019-05-14T12:13:39.406Z,2.72
2019-05-14T12:16:09.633Z,2.87
2019-05-14T12:18:41.657Z,2.60
2019-05-14T12:21:11.705Z,2.50
2019-05-14T12:23:41.906Z,2.17
2019-05-14T12:26:12.135Z,2.25
2019-05-14T12:28:42.277Z,2.40
2019-05-14T12:31:12.496Z,2.50
2019-05-14T12:33:42.791Z,2.62
2019-05-14T12:36:12.936Z,2.70
2019-05-14T12:38:43.095Z,2.92
2019-05-14T12:41:13.542Z,2.92
2019-05-14T12:43:44.153Z,2.72
2019-05-14T12:46:14.295Z,2.55
2019-05-14T12:48:45.468Z,2.80
2019-05-14T12:51:18.436Z,2.60
2019-05-14T12:53:48.763Z,2.70
2019-05-14T12:56:19.223Z,2.40
2019-05-14T12:58:49.484Z,3.17
2019-05-14T13:01:20.254Z,3.40
2019-05-14T13:03:51.688Z,2.70
2019-05-14T13:06:21.861Z,2.40
2019-05-14T13:08:51.999Z,2.50
2019-05-14T13:11:23.306Z,2.20
2019-05-14T13:13:53.446Z,2.25
2019-05-14T13:16:23.674Z,2.45
2019-05-14T13:18:53.816Z,2.60
2019-05-14T13:21:24.037Z,2.30
2019-05-14T13:23:54.163Z,2.47
2019-05-14T13:26:24.327Z,2.85
2019-05-14T13:28:54.552Z,2.05
2019-05-14T13:31:24.706Z,2.20
2019-05-14T13:33:54.872Z,2.60
2019-05-14T13:36:25.112Z,2.50
2019-05-14T13:38:55.392Z,3.15
2019-05-14T13:41:25.628Z,2.30
2019-05-14T13:43:58.460Z,2.55
2019-05-14T13:46:28.647Z,2.40
2019-05-14T13:49:00.208Z,2.58
2019-05-14T13:51:33.382Z,2.27
2019-05-14T13:54:02.199Z,2.35
2019-05-14T13:56:32.347Z,2.40
2019-05-14T13:59:02.581Z,2.45
2019-05-14T14:01:32.822Z,2.77
2019-05-14T14:04:10.900Z,2.55
2019-05-14T14:06:34.915Z,2.45
2019-05-14T14:09:12.024Z,2.55
2019-05-14T14:11:38.428Z,2.55
2019-05-14T14:14:09.001Z,3.12
2019-05-14T14:16:39.694Z,2.25
2019-05-14T14:19:09.829Z,2.45
2019-05-14T14:21:40.107Z,2.00
2019-05-14T14:24:10.270Z,2.50
2019-05-14T14:26:40.409Z,2.65
2019-05-14T14:29:10.632Z,2.20
2019-05-14T14:31:41.712Z,2.30
2019-05-14T14:34:12.269Z,2.55
2019-05-14T14:36:42.497Z,2.67
2019-05-14T14:39:12.588Z,2.65
2019-05-14T14:41:44.250Z,2.72
2019-05-14T14:44:14.563Z,2.50
2019-05-14T14:46:44.809Z,2.47
2019-05-14T14:49:14.980Z,2.45
2019-05-14T14:51:45.441Z,3.00
2019-05-14T14:54:16.702Z,2.15
2019-05-14T14:56:48.706Z,2.60
2019-05-14T14:59:19.120Z,2.27
2019-05-14T15:02:13.769Z,2.20
2019-05-14T15:04:43.993Z,2.22
2019-05-14T15:07:14.001Z,2.15
2019-05-14T15:09:44.203Z,2.40
2019-05-14T15:12:14.425Z,2.58
2019-05-14T15:14:44.504Z,2.40
2019-05-14T15:17:14.793Z,2.35
2019-05-14T15:19:45.008Z,2.50
2019-05-14T15:22:15.175Z,2.42
2019-05-14T15:24:45.347Z,2.20
2019-05-14T15:27:15.665Z,2.70
2019-05-14T15:29:48.704Z,2.33
2019-05-14T15:32:19.650Z,2.52
2019-05-14T15:34:50.680Z,2.12
2019-05-14T15:37:21.036Z,2.50
2019-05-14T15:39:51.178Z,2.47
2019-05-14T15:42:21.418Z,2.58
2019-05-14T15:44:55.716Z,2.33
2019-05-14T15:47:23.353Z,2.58
2019-05-14T15:49:53.454Z,2.87
2019-05-14T15:52:23.745Z,2.30
2019-05-14T15:54:53.958Z,2.25
2019-05-14T15:57:24.186Z,2.60
2019-05-14T15:59:54.403Z,2.30
2019-05-14T16:02:24.748Z,2.62
2019-05-14T16:04:54.869Z,2.65
2019-05-14T16:07:25.043Z,2.50
2019-05-14T16:09:55.276Z,2.47
2019-05-14T16:12:28.637Z,2.60
2019-05-14T16:14:57.128Z,2.25
2019-05-14T16:17:30.366Z,2.52
2019-05-14T16:20:00.073Z,2.65
2019-05-14T16:22:30.371Z,2.75
2019-05-14T16:25:01.136Z,2.30
2019-05-14T16:27:31.349Z,2.22
2019-05-14T16:30:01.543Z,2.50
2019-05-14T16:32:32.055Z,2.52
2019-05-14T16:35:02.270Z,2.50
2019-05-14T16:37:32.515Z,2.90
2019-05-14T16:40:02.820Z,2.58
2019-05-14T16:42:34.052Z,2.70
2019-05-14T16:45:04.976Z,2.40
2019-05-14T16:47:35.245Z,2.30
2019-05-14T16:50:08.867Z,2.75
2019-05-14T16:52:42.128Z,2.62
2019-05-14T16:55:22.984Z,3.10
2019-05-14T16:57:43.134Z,2.60
2019-05-14T17:00:13.708Z,2.98
2019-05-14T17:02:43.913Z,2.85
2019-05-14T17:05:14.426Z,3.37
2019-05-14T17:07:44.634Z,2.70
2019-05-14T17:10:14.982Z,2.83
2019-05-14T17:12:53.661Z,2.95
2019-05-14T17:15:18.126Z,3.10
2019-05-14T17:17:48.454Z,3.10
2019-05-14T17:20:19.327Z,2.50
2019-05-14T17:22:50.789Z,2.65
2019-05-14T17:25:26.976Z,3.10
2019-05-14T17:27:53.376Z,3.20
2019-05-14T17:30:23.678Z,2.83
2019-05-14T17:32:53.916Z,2.85
2019-05-14T17:35:24.053Z,3.00
2019-05-14T17:37:54.145Z,2.85
2019-05-14T17:40:24.368Z,2.75
2019-05-14T17:42:54.520Z,3.50
2019-05-14T17:45:28.254Z,3.58
2019-05-14T17:47:58.492Z,3.45
2019-05-14T17:50:29.337Z,3.50
2019-05-14T17:53:00.276Z,4.25
2019-05-14T17:55:43.504Z,4.03
2019-05-14T17:58:03.403Z,4.60
2019-05-14T18:00:33.706Z,3.80
2019-05-14T18:03:04.006Z,3.75
2019-05-14T18:05:34.211Z,3.90
2019-05-14T18:08:04.474Z,3.72
2019-05-14T18:10:34.660Z,3.90
2019-05-14T18:13:04.765Z,3.90
2019-05-14T18:15:34.967Z,4.47
2019-05-14T18:18:05.067Z,3.80
2019-05-14T18:20:35.359Z,4.50
2019-05-14T18:23:05.593Z,3.75
2019-05-14T18:25:35.812Z,4.10
2019-05-14T18:28:09.057Z,3.95
2019-05-14T18:30:38.671Z,3.90
2019-05-14T18:33:09.077Z,4.45
2019-05-14T18:35:45.235Z,4.30
2019-05-14T18:38:11.136Z,4.22
2019-05-14T18:40:41.301Z,3.80
2019-05-14T18:43:11.582Z,3.33
2019-05-14T18:45:41.726Z,3.47
2019-05-14T18:48:11.961Z,4.50
2019-05-14T18:50:42.123Z,3.90
2019-05-14T18:53:13.092Z,4.20
2019-05-14T18:55:43.564Z,4.35
2019-05-14T18:58:13.632Z,4.62
2019-05-14T19:00:43.792Z,4.28
2019-05-14T19:03:14.022Z,4.25
2019-05-14T19:05:44.193Z,4.70
2019-05-14T19:08:14.346Z,4.62
2019-05-14T19:10:44.719Z,4.28
2019-05-14T19:13:15.293Z,4.65
2019-05-14T19:15:48.325Z,4.83
2019-05-14T19:18:19.800Z,5.10
2019-05-14T19:20:49.916Z,5.22
2019-05-14T19:23:20.012Z,5.03
2019-05-14T19:25:50.155Z,4.40
2019-05-14T19:28:20.280Z,4.15
2019-05-14T19:30:50.492Z,3.45
2019-05-14T19:33:20.824Z,3.70
2019-05-14T19:35:51.046Z,3.55
2019-05-14T19:38:21.139Z,3.52
2019-05-14T19:40:51.306Z,3.87
2019-05-14T19:43:21.487Z,4.00
2019-05-14T19:45:52.548Z,4.30
2019-05-14T19:48:22.769Z,3.72
2019-05-14T19:50:53.056Z,4.37
2019-05-14T19:53:23.379Z,4.70
2019-05-14T19:55:53.516Z,4.70
2019-05-14T19:58:23.822Z,5.22
2019-05-14T20:00:53.951Z,5.70
2019-05-14T20:03:24.245Z,5.92
2019-05-14T20:05:54.380Z,6.47
2019-05-14T20:08:25.708Z,6.85
2019-05-14T20:10:55.846Z,7.67
2019-05-14T20:13:28.528Z,6.90
2019-05-14T20:15:59.069Z,5.80
2019-05-14T20:18:29.415Z,6.62
2019-05-14T20:20:59.640Z,6.17
2019-05-14T20:23:29.777Z,6.35
2019-05-14T20:25:59.876Z,6.10
2019-05-14T20:28:30.091Z,6.75
2019-05-14T20:31:01.698Z,6.30
2019-05-14T20:33:31.863Z,6.08
2019-05-14T20:36:02.005Z,6.58
2019-05-14T20:38:32.070Z,6.08
2019-05-14T20:41:02.305Z,6.25
2019-05-14T20:43:32.527Z,6.90
2019-05-14T20:46:02.824Z,6.65
2019-05-14T20:48:32.909Z,6.85
2019-05-14T20:51:03.062Z,6.10
2019-05-14T20:53:34.367Z,6.80
2019-05-14T20:56:04.522Z,6.95
2019-05-14T20:58:34.692Z,6.22
2019-05-14T21:01:05.155Z,6.08
2019-05-14T21:03:35.303Z,6.00
2019-05-14T21:06:05.611Z,6.35
2019-05-14T21:08:37.833Z,6.28
2019-05-14T21:11:08.300Z,5.95
2019-05-14T21:13:38.660Z,5.60
2019-05-14T21:16:10.871Z,6.28
2019-05-14T21:18:41.286Z,6.10
2019-05-14T21:21:11.611Z,6.12
2019-05-14T21:23:41.762Z,7.08
2019-05-14T21:26:11.920Z,6.65
2019-05-14T21:28:42.000Z,6.40
2019-05-14T21:31:13.154Z,6.60
2019-05-14T21:33:43.280Z,7.20
2019-05-14T21:36:13.535Z,6.65
2019-05-14T21:38:43.669Z,6.75
2019-05-14T21:41:13.894Z,6.75
2019-05-14T21:43:44.048Z,6.67
2019-05-14T21:46:14.275Z,6.92
2019-05-14T21:48:44.419Z,7.83
2019-05-14T21:51:14.497Z,6.42
2019-05-14T21:53:44.650Z,7.42
2019-05-14T21:56:14.905Z,7.35
2019-05-14T21:58:45.025Z,7.40
2019-05-14T22:01:15.409Z,7.87
2019-05-14T22:03:45.654Z,6.67
2019-05-14T22:06:18.138Z,7.35
2019-05-14T22:08:48.773Z,7.33
2019-05-14T22:11:19.150Z,6.60
2019-05-14T22:13:49.746Z,6.65
2019-05-14T22:16:21.029Z,7.33
2019-05-14T22:18:51.203Z,7.00
2019-05-14T22:21:21.422Z,6.75
2019-05-14T22:23:52.572Z,6.95
2019-05-14T22:26:22.639Z,7.10
2019-05-14T22:28:52.801Z,7.05
2019-05-14T22:31:22.972Z,6.70
2019-05-14T22:33:53.128Z,5.70
2019-05-14T22:36:24.416Z,6.42
2019-05-14T22:38:54.581Z,7.35
2019-05-14T22:41:24.794Z,6.53
2019-05-14T22:43:56.888Z,7.03
2019-05-14T22:46:26.854Z,6.53
2019-05-14T22:48:58.683Z,6.50
2019-05-14T22:51:33.057Z,6.25
2019-05-14T22:54:01.815Z,6.80
2019-05-14T22:56:32.025Z,6.22
2019-05-14T22:59:02.251Z,6.08
2019-05-14T23:01:32.461Z,6.55
2019-05-14T23:04:02.711Z,6.95
2019-05-14T23:06:32.937Z,7.12
2019-05-14T23:09:04.752Z,6.62
2019-05-14T23:11:35.062Z,6.78
2019-05-14T23:14:05.300Z,7.25
2019-05-14T23:16:39.205Z,6.62
2019-05-14T23:19:07.988Z,6.78
2019-05-14T23:21:39.139Z,6.92
2019-05-14T23:24:09.437Z,6.83
2019-05-14T23:26:39.764Z,7.12
2019-05-14T23:29:09.910Z,7.83
2019-05-14T23:31:40.152Z,7.55
2019-05-14T23:34:10.434Z,8.18
2019-05-14T23:36:40.602Z,8.00
2019-05-14T23:39:10.722Z,7.80
2019-05-14T23:41:40.819Z,8.05
2019-05-14T23:44:11.026Z,7.85
2019-05-14T23:46:41.331Z,8.33
2019-05-14T23:49:12.140Z,7.67
2019-05-14T23:51:42.396Z,7.33
2019-05-14T23:54:12.550Z,7.92
2019-05-14T23:56:42.687Z,7.67
2019-05-14T23:59:12.993Z,6.72
